createdAt,value
2023-01-26T00:02:09.440Z,74.60
2023-01-26T00:04:37.304Z,74.55
2023-01-26T00:07:06.516Z,74.45
2023-01-26T00:09:34.399Z,74.66
2023-01-26T00:12:02.369Z,75.90
2023-01-26T00:14:49.638Z,75.42
2023-01-26T00:17:25.912Z,75.13
2023-01-26T00:19:56.226Z,74.88
2023-01-26T00:22:26.403Z,75.53
2023-01-26T00:24:54.635Z,74.97
2023-01-26T00:27:22.548Z,74.37
2023-01-26T00:29:50.891Z,74.65
2023-01-26T00:32:18.789Z,74.18
2023-01-26T00:34:46.744Z,74.63
2023-01-26T00:37:14.593Z,74.83
2023-01-26T00:39:43.829Z,73.79
2023-01-26T00:42:13.910Z,74.54
2023-01-26T00:44:44.017Z,74.00
2023-01-26T00:47:13.891Z,73.75
2023-01-26T00:49:41.753Z,73.93
2023-01-26T00:52:09.641Z,74.38
2023-01-26T00:54:37.531Z,75.00
2023-01-26T00:57:06.844Z,74.27
2023-01-26T00:59:34.860Z,75.34
2023-01-26T01:02:03.646Z,75.66
2023-01-26T01:04:31.755Z,75.84
2023-01-26T01:07:01.807Z,75.64
2023-01-26T01:09:29.725Z,74.71
2023-01-26T01:11:57.625Z,74.54
2023-01-26T01:14:26.979Z,75.21
2023-01-26T01:16:54.922Z,73.92
2023-01-26T01:19:22.899Z,74.36
2023-01-26T01:21:50.844Z,74.68
2023-01-26T01:24:18.788Z,74.29
2023-01-26T01:26:46.820Z,74.64
2023-01-26T01:29:15.354Z,74.12
2023-01-26T01:31:44.865Z,73.49
2023-01-26T01:34:12.918Z,73.92
2023-01-26T01:36:41.280Z,72.93
2023-01-26T01:39:09.316Z,74.04
2023-01-26T01:41:37.189Z,74.06
2023-01-26T01:44:20.535Z,73.69
2023-01-26T01:46:54.958Z,73.14
2023-01-26T01:49:29.140Z,72.83
2023-01-26T01:52:03.567Z,73.39
2023-01-26T01:54:35.437Z,73.56
2023-01-26T01:57:15.725Z,74.55
2023-01-26T01:59:47.209Z,74.08
2023-01-26T02:02:16.841Z,74.23
2023-01-26T02:04:45.360Z,73.49
2023-01-26T02:07:13.634Z,73.14
2023-01-26T02:10:02.367Z,73.19
2023-01-26T02:12:32.276Z,72.83
2023-01-26T02:15:01.605Z,73.18
2023-01-26T02:17:30.895Z,73.27
2023-01-26T02:20:06.252Z,72.55
2023-01-26T02:22:42.609Z,73.60
2023-01-26T02:25:19.007Z,72.99
2023-01-26T02:27:49.064Z,73.46
2023-01-26T02:30:18.519Z,74.91
2023-01-26T02:32:47.755Z,75.20
2023-01-26T02:35:16.358Z,74.87
2023-01-26T02:37:44.271Z,74.00
2023-01-26T02:40:21.343Z,76.43
2023-01-26T02:42:54.214Z,76.82
2023-01-26T02:45:23.252Z,75.66
2023-01-26T02:47:51.115Z,75.61
2023-01-26T02:50:19.663Z,75.23
2023-01-26T02:52:47.647Z,74.79
2023-01-26T02:55:25.144Z,75.05
2023-01-26T02:57:56.380Z,74.80
2023-01-26T03:00:26.951Z,75.71
2023-01-26T03:02:57.648Z,76.41
2023-01-26T03:05:27.137Z,76.47
2023-01-26T03:07:56.727Z,75.12
2023-01-26T03:10:28.762Z,75.81
2023-01-26T03:12:58.704Z,76.36
2023-01-26T03:15:42.723Z,74.87
2023-01-26T03:18:29.792Z,75.11
2023-01-26T03:21:17.766Z,74.40
2023-01-26T03:24:03.534Z,74.59
2023-01-26T03:26:49.416Z,75.38
2023-01-26T03:29:21.168Z,75.13
2023-01-26T03:31:49.757Z,75.10
2023-01-26T03:34:18.518Z,74.89
2023-01-26T03:36:48.117Z,74.07
2023-01-26T03:39:32.236Z,74.34
2023-01-26T03:42:18.584Z,74.33
2023-01-26T03:45:05.579Z,73.90
2023-01-26T03:47:51.346Z,73.78
2023-01-26T03:50:37.624Z,74.04
2023-01-26T03:53:32.085Z,73.47
2023-01-26T03:56:18.056Z,73.80
2023-01-26T03:58:47.793Z,74.29
2023-01-26T04:01:20.117Z,73.13
2023-01-26T04:04:09.948Z,73.88
2023-01-26T04:06:57.643Z,71.97
2023-01-26T04:09:25.723Z,72.51
2023-01-26T04:11:53.727Z,72.55
2023-01-26T04:14:49.342Z,73.04
2023-01-26T04:17:39.379Z,72.77
2023-01-26T04:20:26.293Z,72.27
2023-01-26T04:22:54.231Z,72.71
2023-01-26T04:25:23.192Z,72.48
2023-01-26T04:27:51.566Z,72.51
2023-01-26T04:30:20.715Z,72.27
2023-01-26T04:32:52.149Z,71.92
2023-01-26T04:35:20.086Z,71.94
2023-01-26T04:37:49.171Z,71.79
2023-01-26T04:40:17.825Z,72.30
2023-01-26T04:42:47.347Z,70.86
2023-01-26T04:45:15.284Z,71.08
2023-01-26T04:47:45.235Z,71.26
2023-01-26T04:50:15.200Z,71.55
2023-01-26T04:52:43.303Z,72.01
2023-01-26T04:55:11.518Z,71.91
2023-01-26T04:57:42.279Z,71.89
2023-01-26T05:00:13.096Z,73.00
2023-01-26T05:02:42.149Z,72.65
2023-01-26T05:05:11.049Z,72.96
2023-01-26T05:07:41.085Z,72.47
2023-01-26T05:10:11.972Z,72.44
2023-01-26T05:12:53.957Z,71.76
2023-01-26T05:15:42.063Z,73.34
2023-01-26T05:18:17.378Z,72.56
2023-01-26T05:21:06.160Z,72.52
2023-01-26T05:23:45.140Z,73.35
2023-01-26T05:26:39.019Z,73.64
2023-01-26T05:29:11.865Z,72.42
2023-01-26T05:31:39.896Z,73.09
2023-01-26T05:34:08.025Z,72.97
2023-01-26T05:36:37.647Z,72.88
2023-01-26T05:39:07.277Z,73.26
2023-01-26T05:41:35.097Z,72.71
2023-01-26T05:44:21.385Z,74.01
2023-01-26T05:46:53.884Z,73.82
2023-01-26T05:49:21.879Z,74.19
2023-01-26T05:51:51.105Z,73.93
2023-01-26T05:54:20.578Z,74.94
2023-01-26T05:56:48.527Z,74.23
2023-01-26T05:59:16.591Z,74.33
2023-01-26T06:01:44.791Z,74.13
2023-01-26T06:04:13.183Z,73.33
2023-01-26T06:06:50.228Z,72.80
2023-01-26T06:09:46.115Z,72.90
2023-01-26T06:12:21.581Z,72.49
2023-01-26T06:15:02.736Z,72.52
2023-01-26T06:17:38.411Z,73.76
2023-01-26T06:20:11.346Z,72.54
2023-01-26T06:22:39.890Z,72.45
2023-01-26T06:25:10.136Z,72.08
2023-01-26T06:27:42.042Z,72.93
2023-01-26T06:30:17.179Z,72.23
2023-01-26T06:32:48.479Z,71.45
2023-01-26T06:35:16.788Z,71.87
2023-01-26T06:37:45.466Z,71.22
2023-01-26T06:40:15.238Z,70.82
2023-01-26T06:42:48.664Z,71.06
2023-01-26T06:45:17.880Z,71.31
2023-01-26T06:47:47.238Z,70.83
2023-01-26T06:50:16.424Z,70.91
2023-01-26T06:52:47.968Z,71.32
2023-01-26T06:55:41.739Z,72.74
2023-01-26T06:58:28.049Z,72.09
2023-01-26T07:00:58.027Z,71.94
2023-01-26T07:03:30.039Z,73.46
2023-01-26T07:05:57.905Z,72.52
2023-01-26T07:08:25.915Z,73.45
2023-01-26T07:10:55.121Z,72.70
2023-01-26T07:13:23.015Z,71.83
2023-01-26T07:15:50.861Z,71.60
2023-01-26T07:18:18.752Z,71.59
2023-01-26T07:20:46.736Z,72.50
2023-01-26T07:23:14.624Z,72.52
2023-01-26T07:25:44.535Z,72.35
2023-01-26T07:28:13.771Z,72.50
2023-01-26T07:30:41.812Z,71.92
2023-01-26T07:33:09.762Z,71.54
2023-01-26T07:35:37.665Z,72.83
2023-01-26T07:38:06.049Z,72.40
2023-01-26T07:40:34.320Z,72.44
2023-01-26T07:43:02.243Z,71.60
2023-01-26T07:45:52.495Z,71.70
2023-01-26T07:48:21.819Z,71.02
2023-01-26T07:50:50.060Z,70.43
2023-01-26T07:53:21.253Z,70.68
2023-01-26T07:55:49.596Z,71.48
2023-01-26T07:58:18.543Z,70.68
2023-01-26T08:00:47.786Z,71.69
2023-01-26T08:03:17.067Z,70.85
2023-01-26T08:05:44.939Z,70.86
2023-01-26T08:08:12.968Z,70.90
2023-01-26T08:10:40.789Z,70.86
2023-01-26T08:13:08.910Z,71.57
2023-01-26T08:15:36.771Z,70.78
2023-01-26T08:18:05.106Z,70.85
2023-01-26T08:20:34.388Z,70.59
2023-01-26T08:23:02.284Z,70.38
2023-01-26T08:25:31.623Z,70.45
2023-01-26T08:27:59.523Z,69.32
2023-01-26T08:30:27.414Z,70.24
2023-01-26T08:32:55.363Z,71.04
2023-01-26T08:35:23.218Z,70.17
2023-01-26T08:37:52.551Z,70.52
2023-01-26T08:40:20.617Z,70.33
2023-01-26T08:42:48.507Z,70.54
2023-01-26T08:45:19.843Z,69.55
2023-01-26T08:47:50.465Z,69.25
2023-01-26T08:50:18.605Z,70.10
2023-01-26T08:52:46.743Z,70.52
2023-01-26T08:55:16.479Z,70.80
2023-01-26T08:57:47.239Z,70.41
2023-01-26T09:00:16.790Z,70.93
2023-01-26T09:02:44.937Z,70.88
2023-01-26T09:05:12.877Z,70.14
2023-01-26T09:07:40.735Z,70.20
2023-01-26T09:10:10.720Z,70.65
2023-01-26T09:12:41.223Z,71.24
2023-01-26T09:15:10.333Z,70.87
2023-01-26T09:17:38.488Z,70.01
2023-01-26T09:20:08.419Z,70.08
2023-01-26T09:22:36.471Z,70.38
2023-01-26T09:25:05.129Z,70.59
2023-01-26T09:27:33.053Z,70.24
2023-01-26T09:30:02.770Z,69.92
2023-01-26T09:32:31.041Z,69.76
2023-01-26T09:34:58.961Z,68.83
2023-01-26T09:37:26.982Z,70.08
2023-01-26T09:39:54.878Z,70.86
2023-01-26T09:42:42.094Z,70.93
2023-01-26T09:45:28.641Z,71.71
2023-01-26T09:48:25.384Z,70.14
2023-01-26T09:50:59.124Z,69.47
2023-01-26T09:53:29.938Z,70.13
2023-01-26T09:55:57.882Z,70.82
2023-01-26T09:58:35.681Z,71.72
2023-01-26T10:01:06.684Z,71.00
2023-01-26T10:03:40.543Z,71.62
2023-01-26T10:06:17.322Z,70.88
2023-01-26T10:09:15.731Z,71.61
2023-01-26T10:11:47.768Z,70.96
2023-01-26T10:14:22.512Z,71.83
2023-01-26T10:16:54.262Z,70.98
2023-01-26T10:19:33.965Z,72.07
2023-01-26T10:22:07.367Z,72.33
2023-01-26T10:24:35.709Z,71.44
2023-01-26T10:27:03.685Z,71.71
2023-01-26T10:29:31.539Z,72.26
2023-01-26T10:32:00.808Z,71.48
2023-01-26T10:34:29.793Z,71.72
2023-01-26T10:37:03.489Z,73.40
2023-01-26T10:39:31.372Z,72.43
2023-01-26T10:42:01.545Z,72.32
2023-01-26T10:44:35.298Z,72.42
2023-01-26T10:47:07.472Z,72.00
2023-01-26T10:49:35.340Z,70.56
2023-01-26T10:52:09.644Z,71.68
2023-01-26T10:54:39.589Z,71.82
2023-01-26T10:57:18.593Z,70.84
2023-01-26T10:59:54.732Z,72.02
2023-01-26T11:02:28.279Z,74.12
2023-01-26T11:05:16.341Z,72.61
2023-01-26T11:07:45.299Z,72.48
2023-01-26T11:10:26.867Z,72.65
2023-01-26T11:13:16.586Z,71.97
2023-01-26T11:15:47.693Z,70.64
2023-01-26T11:18:37.181Z,70.43
2023-01-26T11:21:11.502Z,70.47
2023-01-26T11:23:50.847Z,71.27
2023-01-26T11:26:32.852Z,70.26
2023-01-26T11:29:18.766Z,70.45
2023-01-26T11:31:58.509Z,70.43
2023-01-26T11:34:35.350Z,70.41
2023-01-26T11:37:34.234Z,69.79
2023-01-26T11:40:18.637Z,69.33
2023-01-26T11:42:58.107Z,70.54
2023-01-26T11:45:34.180Z,70.62
2023-01-26T11:48:18.252Z,70.16
2023-01-26T11:50:54.221Z,70.42
2023-01-26T11:53:46.532Z,70.09
2023-01-26T11:56:26.495Z,70.09
2023-01-26T11:58:59.506Z,69.15
2023-01-26T12:01:31.898Z,70.59
2023-01-26T12:03:59.806Z,70.76
2023-01-26T12:06:37.471Z,70.80
2023-01-26T12:09:10.731Z,69.99
2023-01-26T12:11:43.093Z,68.80
2023-01-26T12:14:19.879Z,68.19
2023-01-26T12:17:16.886Z,70.19
2023-01-26T12:19:53.500Z,69.95
2023-01-26T12:22:29.869Z,70.05
2023-01-26T12:25:28.755Z,69.75
2023-01-26T12:27:59.988Z,69.02
2023-01-26T12:30:37.855Z,68.83
2023-01-26T12:33:06.330Z,69.26
2023-01-26T12:35:48.047Z,69.77
2023-01-26T12:38:24.343Z,69.74
2023-01-26T12:41:04.842Z,68.06
2023-01-26T12:43:46.948Z,68.93
2023-01-26T12:46:16.342Z,68.46
2023-01-26T12:48:49.939Z,68.64
2023-01-26T12:51:24.366Z,67.81
2023-01-26T12:53:59.938Z,68.59
2023-01-26T12:56:32.998Z,68.96
2023-01-26T12:59:06.670Z,66.85
2023-01-26T13:01:40.768Z,67.74
2023-01-26T13:04:12.380Z,67.74
2023-01-26T13:06:40.572Z,67.15
2023-01-26T13:09:22.910Z,67.21
2023-01-26T13:11:53.611Z,67.26
2023-01-26T13:14:26.731Z,67.74
2023-01-26T13:16:55.176Z,67.94
2023-01-26T13:19:37.554Z,67.78
2023-01-26T13:22:25.529Z,66.57
2023-01-26T13:24:59.700Z,67.20
2023-01-26T13:27:33.627Z,67.36
2023-01-26T13:30:02.031Z,67.52
2023-01-26T13:33:05.446Z,68.06
2023-01-26T13:35:34.550Z,67.82
2023-01-26T13:38:11.691Z,68.24
2023-01-26T13:40:43.832Z,68.91
2023-01-26T13:43:26.599Z,68.31
2023-01-26T13:46:12.438Z,67.21
2023-01-26T13:48:46.455Z,67.90
2023-01-26T13:51:19.991Z,68.04
2023-01-26T13:53:57.376Z,68.84
2023-01-26T13:56:30.024Z,68.73
2023-01-26T13:59:10.799Z,68.45
2023-01-26T14:01:43.706Z,68.88
2023-01-26T14:04:16.305Z,68.48
2023-01-26T14:06:48.572Z,68.06
2023-01-26T14:09:17.265Z,68.85
2023-01-26T14:11:55.149Z,69.36
2023-01-26T14:14:26.806Z,69.13
2023-01-26T14:16:55.582Z,70.38
2023-01-26T14:19:24.435Z,69.33
2023-01-26T14:21:54.982Z,70.56
2023-01-26T14:24:27.505Z,71.34
2023-01-26T14:26:57.463Z,70.11
2023-01-26T14:29:31.232Z,68.90
2023-01-26T14:32:16.783Z,68.99
2023-01-26T14:34:53.531Z,69.52
2023-01-26T14:37:21.873Z,69.72
2023-01-26T14:39:51.304Z,69.68
2023-01-26T14:42:22.453Z,69.19
2023-01-26T14:44:50.599Z,69.56
2023-01-26T14:47:24.385Z,68.61
2023-01-26T14:50:01.812Z,68.14
2023-01-26T14:52:34.788Z,68.11
2023-01-26T14:55:07.507Z,68.88
2023-01-26T14:57:37.174Z,68.76
2023-01-26T15:00:10.189Z,68.25
2023-01-26T15:02:39.354Z,68.78
2023-01-26T15:05:29.143Z,68.39
2023-01-26T15:08:00.026Z,69.16
2023-01-26T15:10:34.684Z,68.39
2023-01-26T15:13:08.008Z,69.10
2023-01-26T15:15:38.914Z,69.28
2023-01-26T15:18:18.135Z,69.22
2023-01-26T15:20:51.031Z,69.42
2023-01-26T15:23:28.365Z,69.36
2023-01-26T15:25:57.164Z,69.96
2023-01-26T15:28:27.272Z,70.81
2023-01-26T15:30:57.559Z,70.15
2023-01-26T15:33:50.373Z,71.05
2023-01-26T15:36:30.195Z,70.63
2023-01-26T15:39:01.935Z,72.51
2023-01-26T15:41:31.986Z,72.50
2023-01-26T15:44:01.461Z,71.46
2023-01-26T15:46:31.500Z,71.28
2023-01-26T15:48:59.743Z,71.33
2023-01-26T15:51:33.129Z,71.66
2023-01-26T15:54:00.827Z,71.10
2023-01-26T15:56:29.321Z,70.78
2023-01-26T15:58:57.218Z,70.75
2023-01-26T16:01:26.672Z,70.63
2023-01-26T16:03:54.766Z,70.06
2023-01-26T16:06:27.641Z,70.27
2023-01-26T16:08:57.093Z,70.59
2023-01-26T16:11:29.805Z,70.07
2023-01-26T16:14:03.534Z,70.26
2023-01-26T16:16:33.959Z,70.86
2023-01-26T16:19:02.199Z,70.38
2023-01-26T16:21:40.739Z,71.13
2023-01-26T16:24:11.128Z,71.82
2023-01-26T16:26:39.687Z,70.84
2023-01-26T16:29:08.060Z,70.65
2023-01-26T16:31:37.516Z,70.54
2023-01-26T16:34:05.945Z,70.15
2023-01-26T16:36:33.956Z,69.70
2023-01-26T16:39:01.873Z,70.02
2023-01-26T16:41:32.086Z,70.35
2023-01-26T16:44:01.862Z,69.99
2023-01-26T16:46:31.235Z,69.90
2023-01-26T16:49:04.125Z,71.10
2023-01-26T16:51:37.528Z,69.12
2023-01-26T16:54:05.936Z,70.81
2023-01-26T16:56:33.778Z,70.77
2023-01-26T16:59:01.689Z,70.27
2023-01-26T17:01:34.332Z,70.29
2023-01-26T17:04:04.317Z,69.23
2023-01-26T17:06:32.472Z,69.97
2023-01-26T17:09:00.484Z,69.91
2023-01-26T17:11:30.281Z,70.05
2023-01-26T17:13:59.330Z,71.22
2023-01-26T17:16:32.051Z,70.49
2023-01-26T17:19:00.401Z,71.07
2023-01-26T17:21:29.775Z,70.99
2023-01-26T17:23:58.938Z,70.58
2023-01-26T17:26:27.122Z,70.04
2023-01-26T17:28:56.618Z,70.18
2023-01-26T17:31:25.269Z,69.74
2023-01-26T17:33:53.561Z,69.44
2023-01-26T17:36:22.031Z,70.28
2023-01-26T17:38:51.272Z,69.81
2023-01-26T17:41:19.382Z,70.78
2023-01-26T17:43:48.124Z,69.60
2023-01-26T17:46:18.521Z,69.89
2023-01-26T17:48:47.276Z,69.91
2023-01-26T17:51:17.512Z,69.59
2023-01-26T17:53:47.066Z,69.74
2023-01-26T17:56:18.073Z,69.93
2023-01-26T17:58:49.498Z,69.87
2023-01-26T18:01:17.724Z,69.50
2023-01-26T18:03:47.049Z,68.78
2023-01-26T18:06:15.254Z,69.96
2023-01-26T18:08:43.630Z,69.71
2023-01-26T18:11:13.395Z,70.05
2023-01-26T18:13:43.256Z,69.90
2023-01-26T18:16:15.094Z,70.24
2023-01-26T18:18:43.074Z,70.72
2023-01-26T18:21:12.751Z,70.18
2023-01-26T18:23:40.784Z,69.73
2023-01-26T18:26:08.623Z,70.04
2023-01-26T18:28:36.496Z,69.88
2023-01-26T18:31:11.368Z,70.06
2023-01-26T18:33:39.785Z,70.08
2023-01-26T18:36:11.853Z,70.13
2023-01-26T18:38:40.255Z,70.12
2023-01-26T18:41:12.222Z,69.85
2023-01-26T18:43:40.916Z,70.67
2023-01-26T18:46:11.817Z,69.95
2023-01-26T18:48:39.796Z,69.78
2023-01-26T18:51:08.654Z,70.18
2023-01-26T18:53:38.635Z,70.21
2023-01-26T18:56:09.167Z,70.23
2023-01-26T18:58:38.143Z,70.41
2023-01-26T19:01:09.761Z,70.85
2023-01-26T19:03:41.613Z,70.83
2023-01-26T19:06:10.225Z,70.14
2023-01-26T19:08:40.265Z,70.55
2023-01-26T19:11:09.322Z,70.91
2023-01-26T19:13:41.925Z,71.73
2023-01-26T19:16:10.317Z,72.07
2023-01-26T19:18:39.561Z,72.05
2023-01-26T19:21:07.400Z,73.45
2023-01-26T19:23:37.517Z,73.00
2023-01-26T19:26:10.966Z,73.34
2023-01-26T19:28:40.905Z,73.43
2023-01-26T19:31:09.559Z,73.51
2023-01-26T19:33:39.212Z,73.08
2023-01-26T19:36:08.685Z,72.15
2023-01-26T19:38:39.398Z,73.70
2023-01-26T19:41:07.704Z,73.73
2023-01-26T19:43:35.998Z,74.93
2023-01-26T19:46:05.689Z,73.93
2023-01-26T19:48:33.820Z,74.00
2023-01-26T19:51:05.401Z,73.97
2023-01-26T19:53:33.839Z,73.41
2023-01-26T19:56:07.058Z,74.09
2023-01-26T19:58:35.564Z,74.45
2023-01-26T20:01:05.291Z,74.58
2023-01-26T20:03:33.312Z,74.72
2023-01-26T20:06:01.450Z,74.45
2023-01-26T20:08:31.529Z,75.99
2023-01-26T20:11:10.200Z,75.42
2023-01-26T20:13:38.548Z,75.36
2023-01-26T20:16:08.197Z,75.56
2023-01-26T20:18:36.447Z,74.59
2023-01-26T20:21:06.518Z,75.90
2023-01-26T20:23:36.533Z,75.68
2023-01-26T20:26:06.103Z,75.46
2023-01-26T20:28:34.164Z,75.10
2023-01-26T20:31:07.576Z,75.41
2023-01-26T20:33:36.250Z,75.24
2023-01-26T20:36:07.461Z,74.99
2023-01-26T20:38:37.264Z,74.85
2023-01-26T20:41:08.976Z,74.92
2023-01-26T20:43:39.601Z,74.99
2023-01-26T20:46:11.591Z,74.85
2023-01-26T20:48:39.936Z,74.27
2023-01-26T20:51:13.535Z,74.21
2023-01-26T20:53:43.367Z,74.42
2023-01-26T20:56:12.594Z,74.57
2023-01-26T20:58:42.529Z,76.22
2023-01-26T21:01:12.708Z,75.56
2023-01-26T21:03:41.640Z,75.02
2023-01-26T21:06:11.212Z,75.93
2023-01-26T21:08:39.818Z,76.79
2023-01-26T21:11:12.790Z,77.05
2023-01-26T21:13:42.274Z,77.24
2023-01-26T21:16:11.058Z,76.37
2023-01-26T21:18:38.940Z,76.58
2023-01-26T21:21:09.549Z,75.74
2023-01-26T21:23:37.508Z,76.47
2023-01-26T21:26:08.188Z,76.50
2023-01-26T21:28:37.480Z,76.99
2023-01-26T21:31:07.862Z,76.84
2023-01-26T21:33:39.102Z,75.79
2023-01-26T21:36:08.768Z,76.39
2023-01-26T21:38:40.128Z,75.81
2023-01-26T21:41:30.496Z,76.43
2023-01-26T21:44:01.703Z,75.96
2023-01-26T21:46:30.084Z,76.75
2023-01-26T21:48:58.182Z,76.13
2023-01-26T21:51:43.920Z,76.20
2023-01-26T21:54:11.895Z,76.68
2023-01-26T21:56:40.161Z,76.29
2023-01-26T21:59:11.292Z,75.92
2023-01-26T22:01:41.639Z,76.61
2023-01-26T22:04:12.332Z,76.54
2023-01-26T22:06:40.444Z,76.51
2023-01-26T22:09:12.110Z,75.75
2023-01-26T22:11:40.435Z,77.64
2023-01-26T22:14:15.209Z,76.56
2023-01-26T22:16:43.604Z,76.97
2023-01-26T22:19:12.491Z,77.30
2023-01-26T22:21:40.475Z,77.30
2023-01-26T22:24:11.731Z,76.84
2023-01-26T22:26:40.275Z,76.37
2023-01-26T22:29:11.453Z,76.86
2023-01-26T22:31:39.464Z,77.58
2023-01-26T22:34:07.416Z,77.41
2023-01-26T22:36:35.425Z,78.37
2023-01-26T22:39:03.420Z,77.36
2023-01-26T22:41:31.716Z,77.80
2023-01-26T22:44:00.916Z,76.84
2023-01-26T22:46:31.594Z,77.09
2023-01-26T22:49:00.471Z,75.94
2023-01-26T22:51:30.270Z,76.34
2023-01-26T22:54:00.233Z,75.74
2023-01-26T22:56:28.576Z,75.70
2023-01-26T22:59:00.149Z,77.17
2023-01-26T23:01:31.438Z,77.54
2023-01-26T23:04:01.000Z,77.16
2023-01-26T23:06:29.475Z,76.02
2023-01-26T23:08:58.270Z,75.13
2023-01-26T23:11:27.941Z,76.10
2023-01-26T23:13:57.196Z,75.78
2023-01-26T23:16:26.188Z,74.90
2023-01-26T23:18:58.157Z,74.49
2023-01-26T23:21:27.162Z,75.76
2023-01-26T23:23:55.144Z,74.46
2023-01-26T23:26:23.710Z,73.93
2023-01-26T23:28:51.574Z,73.88
2023-01-26T23:31:20.360Z,74.06
2023-01-26T23:33:48.762Z,74.01
2023-01-26T23:36:18.035Z,74.87
2023-01-26T23:38:46.379Z,75.43
2023-01-26T23:41:14.597Z,75.37
2023-01-26T23:43:42.753Z,73.84
2023-01-26T23:46:11.683Z,74.98
2023-01-26T23:48:39.970Z,75.40
2023-01-26T23:51:10.057Z,75.74
2023-01-26T23:53:39.782Z,75.51
2023-01-26T23:56:14.668Z,73.80
2023-01-26T23:58:42.990Z,73.59
